createdAt,value
2016-07-23T00:02:25.186Z,16
2016-07-23T00:05:38.879Z,16
2016-07-23T00:08:52.386Z,15.9
2016-07-23T00:12:06.116Z,15.9
2016-07-23T00:15:19.799Z,15.9
2016-07-23T00:18:33.180Z,15.9
2016-07-23T00:21:51.914Z,15.8
2016-07-23T00:24:55.900Z,15.8
2016-07-23T00:28:09.643Z,15.8
2016-07-23T00:31:23.393Z,15.8
2016-07-23T00:34:36.972Z,15.7
2016-07-23T00:37:55.454Z,15.6
2016-07-23T00:40:59.223Z,15.5
2016-07-23T00:44:12.832Z,15.5
2016-07-23T00:47:26.408Z,15.5
2016-07-23T00:50:40.149Z,15.6
2016-07-23T00:53:53.583Z,15.6
2016-07-23T00:57:07.275Z,15.6
2016-07-23T01:00:21.122Z,15.6
2016-07-23T01:03:34.572Z,15.6
2016-07-23T01:06:53.201Z,15.6
2016-07-23T01:09:57.054Z,15.6
2016-07-23T01:13:10.616Z,15.5
2016-07-23T01:16:24.295Z,15.5
2016-07-23T01:19:35.263Z,15.4
2016-07-23T01:22:53.891Z,15.4
2016-07-23T01:25:57.761Z,15.4
2016-07-23T01:29:11.326Z,15.3
2016-07-23T01:32:24.991Z,15.3
2016-07-23T01:35:38.400Z,15.3
2016-07-23T01:38:51.977Z,15.3
2016-07-23T01:42:05.548Z,15.3
2016-07-23T01:45:19.205Z,15.2
2016-07-23T01:48:32.812Z,15.2
2016-07-23T01:51:51.453Z,15.2
2016-07-23T01:54:55.334Z,15.1
2016-07-23T01:58:06.994Z,15.1
2016-07-23T02:01:22.744Z,15.1
2016-07-23T02:04:36.296Z,15
2016-07-23T02:07:54.886Z,15
2016-07-23T02:10:58.886Z,15
2016-07-23T02:14:12.391Z,15
2016-07-23T02:17:25.833Z,15
2016-07-23T02:20:39.367Z,14.9
2016-07-23T02:23:52.908Z,14.8
2016-07-23T02:27:06.546Z,14.8
2016-07-23T02:30:20.014Z,14.8
2016-07-23T02:33:33.634Z,14.7
2016-07-23T02:36:52.287Z,14.7
2016-07-23T02:39:56.099Z,14.7
2016-07-23T02:43:09.732Z,14.6
2016-07-23T02:46:21.229Z,14.6
2016-07-23T02:49:37.032Z,14.6
2016-07-23T02:52:55.506Z,14.5
2016-07-23T02:55:59.220Z,14.5
2016-07-23T02:59:12.731Z,14.5
2016-07-23T03:02:26.325Z,14.4
2016-07-23T03:05:39.903Z,14.5
2016-07-23T03:08:53.434Z,14.4
2016-07-23T03:12:04.958Z,14.3
2016-07-23T03:15:20.308Z,14.3
2016-07-23T03:18:33.953Z,14.3
2016-07-23T03:21:52.331Z,14.3
2016-07-23T03:24:56.126Z,14.3
2016-07-23T03:28:09.539Z,14.3
2016-07-23T03:31:23.050Z,14.2
2016-07-23T03:34:36.630Z,14.2
2016-07-23T03:37:55.159Z,14.1
2016-07-23T03:40:56.781Z,14.1
2016-07-23T03:44:12.269Z,14.1
2016-07-23T03:47:25.681Z,14
2016-07-23T03:50:39.237Z,14.1
2016-07-23T03:53:52.733Z,14
2016-07-23T03:57:06.238Z,14
2016-07-23T04:00:19.546Z,14
2016-07-23T04:03:33.269Z,14
2016-07-23T04:06:51.824Z,14
2016-07-23T04:09:53.475Z,14
2016-07-23T04:13:09.177Z,14
2016-07-23T04:16:22.736Z,14
2016-07-23T04:19:36.195Z,14
2016-07-23T04:22:54.654Z,14
2016-07-23T04:25:58.371Z,14
2016-07-23T04:29:12.003Z,14.1
2016-07-23T04:32:25.292Z,14.1
2016-07-23T04:35:38.808Z,14.1
2016-07-23T04:38:52.340Z,14.1
2016-07-23T04:42:05.832Z,14.1
2016-07-23T04:45:19.175Z,14.1
2016-07-23T04:48:32.574Z,14.1
2016-07-23T04:51:51.087Z,14.1
2016-07-23T04:54:54.836Z,14.2
2016-07-23T04:58:08.336Z,14.3
2016-07-23T05:01:21.934Z,14.4
2016-07-23T05:04:35.515Z,14.5
2016-07-23T05:10:57.802Z,14.7
2016-07-23T05:14:11.054Z,15
2016-07-23T05:17:24.537Z,15.3
2016-07-23T05:20:38.418Z,15.5
2016-07-23T05:23:52.129Z,15.8
2016-07-23T05:27:05.968Z,16.1
2016-07-23T05:30:19.626Z,16.3
2016-07-23T05:33:33.266Z,16.6
2016-07-23T05:36:51.824Z,16.9
2016-07-23T05:39:54.041Z,17.1
2016-07-23T05:43:09.835Z,17.3
2016-07-23T05:46:23.853Z,17.6
2016-07-23T05:49:35.727Z,17.7
2016-07-23T05:52:51.815Z,18
2016-07-23T05:56:05.564Z,18.1
2016-07-23T05:59:19.505Z,18.2
2016-07-23T06:02:33.243Z,18.4
2016-07-23T06:05:52.433Z,18.7
2016-07-23T06:08:56.836Z,18.9
2016-07-23T06:12:10.844Z,19.3
2016-07-23T06:15:24.895Z,19.6
2016-07-23T06:18:39.174Z,20
2016-07-23T06:21:53.394Z,20.3
2016-07-23T06:25:07.481Z,20.6
2016-07-23T06:28:21.635Z,20.9
2016-07-23T06:31:35.832Z,21.2
2016-07-23T06:34:55.077Z,21.6
2016-07-23T06:37:59.677Z,22
2016-07-23T06:41:13.038Z,22.4
2016-07-23T06:44:27.482Z,22.6
2016-07-23T06:47:46.924Z,23
2016-07-23T06:50:56.663Z,23.3
2016-07-23T06:54:01.633Z,23.8
2016-07-23T06:57:16.334Z,24.6
2016-07-23T07:00:31.172Z,25.1
2016-07-23T07:03:50.869Z,25.7
2016-07-23T07:06:55.881Z,26.1
2016-07-23T07:10:10.812Z,26.4
2016-07-23T07:13:25.629Z,27
2016-07-23T07:16:40.586Z,27.1
2016-07-23T07:19:55.279Z,27.1
2016-07-23T07:23:09.827Z,27.2
2016-07-23T07:26:24.797Z,27.6
2016-07-23T07:29:39.721Z,28.2
2016-07-23T07:32:54.679Z,28.8
2016-07-23T07:36:09.831Z,28.8
2016-07-23T07:39:23.062Z,28.8
2016-07-23T07:42:39.893Z,29.4
2016-07-23T07:45:55.289Z,29.3
2016-07-23T07:49:10.638Z,29.7
2016-07-23T07:52:25.993Z,29.8
2016-07-23T07:55:41.173Z,29.7
2016-07-23T07:58:55.959Z,29.5
2016-07-23T08:02:11.005Z,29.7
2016-07-23T08:05:25.995Z,29.7
2016-07-23T08:08:40.972Z,29.6
2016-07-23T08:11:55.842Z,30
2016-07-23T08:15:10.609Z,29.7
2016-07-23T08:18:25.688Z,29.8
2016-07-23T08:21:40.667Z,29.5
2016-07-23T08:24:55.574Z,29.3
2016-07-23T08:28:10.481Z,29.5
2016-07-23T08:31:25.560Z,29.6
2016-07-23T08:34:40.516Z,29.8
2016-07-23T08:37:55.411Z,29.7
2016-07-23T08:41:10.420Z,29.6
2016-07-23T08:44:25.181Z,29.7
2016-07-23T08:47:40.320Z,30.2
2016-07-23T08:50:55.439Z,30.3
2016-07-23T08:54:08.358Z,30.4
2016-07-23T08:57:25.379Z,30.5
2016-07-23T09:00:40.050Z,30.3
2016-07-23T09:03:52.811Z,30.2
2016-07-23T09:07:09.888Z,30.3
2016-07-23T09:10:24.849Z,30.6
2016-07-23T09:13:39.922Z,30.7
2016-07-23T09:16:54.998Z,30.7
2016-07-23T09:20:10.286Z,31.1
2016-07-23T09:23:25.357Z,30.6
2016-07-23T09:26:40.368Z,30.4
2016-07-23T09:29:55.144Z,30.3
2016-07-23T09:33:09.865Z,29.8
2016-07-23T09:36:24.127Z,29.2
2016-07-23T09:39:38.614Z,29
2016-07-23T09:42:53.263Z,28.7
2016-07-23T09:46:08.110Z,28.8
2016-07-23T09:49:22.913Z,28.7
2016-07-23T09:52:37.821Z,28.7
2016-07-23T09:55:52.408Z,28.6
2016-07-23T09:59:06.779Z,28.2
2016-07-23T10:02:21.261Z,27.9
2016-07-23T10:05:36.058Z,27.8
2016-07-23T10:08:55.500Z,27.7
2016-07-23T10:12:00.480Z,27.3
2016-07-23T10:15:14.964Z,27
2016-07-23T10:18:29.491Z,26.3
2016-07-23T10:21:48.576Z,25.9
2016-07-23T10:24:53.437Z,25.7
2016-07-23T10:28:08.088Z,25.7
2016-07-23T10:31:22.586Z,25.8
2016-07-23T10:34:37.278Z,25.9
2016-07-23T10:37:56.710Z,25.9
2016-07-23T10:40:59.634Z,25.8
2016-07-23T10:44:16.458Z,25.7
2016-07-23T10:47:31.068Z,25.6
2016-07-23T10:50:50.586Z,25.7
2016-07-23T10:53:55.672Z,25.6
2016-07-23T10:57:09.685Z,25.4
2016-07-23T11:00:24.030Z,25.3
2016-07-23T11:03:38.221Z,25.4
2016-07-23T11:06:52.432Z,25.3
2016-07-23T11:10:06.864Z,25.2
2016-07-23T11:13:21.009Z,25.1
2016-07-23T11:16:35.103Z,24.8
2016-07-23T11:19:54.453Z,24
2016-07-23T11:22:58.896Z,22.6
2016-07-23T11:26:12.702Z,21.8
2016-07-23T11:29:26.303Z,21.3
2016-07-23T11:32:39.237Z,21
2016-07-23T11:35:53.168Z,20.8
2016-07-23T11:39:07.143Z,20.7
2016-07-23T11:42:20.758Z,20.7
2016-07-23T11:45:38.159Z,20.7
2016-07-23T11:48:52.474Z,20.8
2016-07-23T11:51:57.160Z,20.8
2016-07-23T11:55:10.983Z,20.9
2016-07-23T11:58:24.693Z,20.9
2016-07-23T12:01:38.365Z,21
2016-07-23T12:04:52.423Z,21.1
2016-07-23T12:08:06.728Z,21.4
2016-07-23T12:11:21.265Z,21.4
2016-07-23T12:14:33.534Z,21.4
2016-07-23T12:17:54.852Z,21.4
2016-07-23T12:20:59.656Z,21.5
2016-07-23T12:24:13.681Z,21.6
2016-07-23T12:27:27.461Z,21.6
2016-07-23T12:30:41.404Z,21.5
2016-07-23T12:33:55.092Z,21.5
2016-07-23T12:37:08.738Z,21.5
2016-07-23T12:40:22.027Z,21.7
2016-07-23T12:43:35.465Z,21.8
2016-07-23T12:46:54.274Z,21.8
2016-07-23T12:49:59.015Z,21.8
2016-07-23T12:53:12.921Z,21.9
2016-07-23T12:56:25.319Z,22
2016-07-23T12:59:39.755Z,22
2016-07-23T13:02:54.170Z,22
2016-07-23T13:06:08.618Z,22
2016-07-23T13:09:23.058Z,22.1
2016-07-23T13:12:37.661Z,22.1
2016-07-23T13:15:56.599Z,22.2
2016-07-23T13:19:01.365Z,22.2
2016-07-23T13:22:14.733Z,22.3
2016-07-23T13:25:29.280Z,22.4
2016-07-23T13:28:48.469Z,22.5
2016-07-23T13:31:53.234Z,22.6
2016-07-23T13:35:07.757Z,22.6
2016-07-23T13:38:16.836Z,22.6
2016-07-23T13:41:33.159Z,22.6
2016-07-23T13:44:52.291Z,22.6
2016-07-23T13:47:56.971Z,22.7
2016-07-23T13:51:11.137Z,22.7
2016-07-23T13:54:25.795Z,22.8
2016-07-23T13:57:40.270Z,22.9
2016-07-23T14:00:54.560Z,22.9
2016-07-23T14:04:08.969Z,23
2016-07-23T14:07:23.378Z,23
2016-07-23T14:10:35.479Z,23
2016-07-23T14:13:54.621Z,23
2016-07-23T14:16:59.417Z,23
2016-07-23T14:20:13.673Z,23
2016-07-23T14:23:27.719Z,23
2016-07-23T14:26:42.006Z,23
2016-07-23T14:29:53.563Z,23
2016-07-23T14:33:08.025Z,23
2016-07-23T14:36:22.121Z,23.1
2016-07-23T14:39:36.905Z,23.1
2016-07-23T14:42:53.819Z,23.1
2016-07-23T14:45:58.737Z,23.1
2016-07-23T14:49:12.870Z,23.1
2016-07-23T14:52:26.954Z,23.1
2016-07-23T14:55:41.920Z,23.2
2016-07-23T14:58:54.692Z,23.2
2016-07-23T15:02:09.035Z,23.2
2016-07-23T15:05:23.598Z,23.2
2016-07-23T15:08:37.958Z,23.2
2016-07-23T15:11:52.214Z,23.2
2016-07-23T15:15:06.718Z,23.2
2016-07-23T15:18:21.535Z,23.2
2016-07-23T15:21:36.001Z,23.1
2016-07-23T15:24:55.526Z,23.1
2016-07-23T15:28:00.400Z,23.2
2016-07-23T15:31:14.956Z,23.1
2016-07-23T15:34:29.255Z,23.2
2016-07-23T15:37:48.624Z,23.2
2016-07-23T15:40:53.466Z,23.2
2016-07-23T15:44:08.028Z,23.3
2016-07-23T15:47:22.772Z,23.2
2016-07-23T15:50:37.172Z,23.2
2016-07-23T15:53:56.717Z,23.1
2016-07-23T15:57:01.503Z,23.1
2016-07-23T16:00:16.282Z,23.1
2016-07-23T16:03:30.776Z,23.1
2016-07-23T16:06:50.322Z,23
2016-07-23T16:09:55.356Z,23
2016-07-23T16:13:09.812Z,22.9
2016-07-23T16:16:24.021Z,22.9
2016-07-23T16:19:38.453Z,22.9
2016-07-23T16:22:55.645Z,22.9
2016-07-23T16:26:00.466Z,22.8
2016-07-23T16:29:14.634Z,22.8
2016-07-23T16:32:28.982Z,22.8
2016-07-23T16:35:48.391Z,22.7
2016-07-23T16:38:53.115Z,22.7
2016-07-23T16:42:07.853Z,22.7
2016-07-23T16:45:22.333Z,22.6
2016-07-23T16:48:36.700Z,22.6
2016-07-23T16:51:55.918Z,22.5
2016-07-23T16:55:00.752Z,22.5
2016-07-23T16:58:14.439Z,22.5
2016-07-23T17:01:28.250Z,22.5
2016-07-23T17:04:47.454Z,22.5
2016-07-23T17:07:52.115Z,22.4
2016-07-23T17:11:05.791Z,22.4
2016-07-23T17:14:19.698Z,22.4
2016-07-23T17:17:33.584Z,22.3
2016-07-23T17:20:52.663Z,22.3
2016-07-23T17:23:57.448Z,22.2
2016-07-23T17:27:10.960Z,22.2
2016-07-23T17:30:24.763Z,22.1
2016-07-23T17:33:38.665Z,22.1
2016-07-23T17:36:52.698Z,22
2016-07-23T17:40:06.327Z,22
2016-07-23T17:43:20.027Z,21.9
2016-07-23T17:46:33.916Z,21.8
2016-07-23T17:49:52.559Z,21.7
2016-07-23T17:52:57.054Z,21.6
2016-07-23T17:56:11.349Z,21.6
2016-07-23T17:59:25.359Z,21.5
2016-07-23T18:02:39.548Z,21.4
2016-07-23T18:05:53.526Z,21.4
2016-07-23T18:09:07.649Z,21.3
2016-07-23T18:12:21.356Z,21.2
2016-07-23T18:15:35.293Z,21.1
2016-07-23T18:18:54.140Z,21.1
2016-07-23T18:21:58.805Z,21
2016-07-23T18:25:13.273Z,20.9
2016-07-23T18:28:27.456Z,20.9
2016-07-23T18:31:41.581Z,20.8
2016-07-23T18:34:55.318Z,20.7
2016-07-23T18:38:09.169Z,20.7
2016-07-23T18:41:22.870Z,20.6
2016-07-23T18:44:36.270Z,20.6
2016-07-23T18:47:54.946Z,20.5
2016-07-23T18:50:59.371Z,20.4
2016-07-23T18:54:13.368Z,20.3
2016-07-23T18:57:27.283Z,20.2
2016-07-23T19:00:40.944Z,20.2
2016-07-23T19:03:55.100Z,20.1
2016-07-23T19:07:08.422Z,20.1
2016-07-23T19:10:22.247Z,20
2016-07-23T19:13:36.194Z,20
2016-07-23T19:16:55.039Z,19.9
2016-07-23T19:19:59.457Z,19.9
2016-07-23T19:23:13.428Z,19.8
2016-07-23T19:26:27.471Z,19.8
2016-07-23T19:29:41.347Z,19.7
2016-07-23T19:32:55.353Z,19.6
2016-07-23T19:36:09.221Z,19.5
2016-07-23T19:39:23.362Z,19.5
2016-07-23T19:42:37.547Z,19.4
2016-07-23T19:45:56.616Z,19.4
2016-07-23T19:49:01.120Z,19.3
2016-07-23T19:52:15.152Z,19.3
2016-07-23T19:55:29.006Z,19.2
2016-07-23T19:58:48.106Z,19.2
2016-07-23T20:01:52.322Z,19.1
2016-07-23T20:05:06.644Z,19.1
2016-07-23T20:08:20.569Z,19
2016-07-23T20:11:34.684Z,19
2016-07-23T20:14:53.827Z,18.9
2016-07-23T20:17:58.323Z,18.9
2016-07-23T20:21:12.375Z,18.8
2016-07-23T20:24:26.224Z,18.7
2016-07-23T20:27:40.300Z,18.7
2016-07-23T20:30:54.171Z,18.7
2016-07-23T20:34:08.390Z,18.7
2016-07-23T20:37:22.461Z,18.7
2016-07-23T20:40:36.577Z,18.7
2016-07-23T20:43:55.249Z,18.6
2016-07-23T20:46:59.528Z,18.6
2016-07-23T20:50:13.469Z,18.5
2016-07-23T20:53:27.556Z,18.5
2016-07-23T20:56:41.816Z,18.4
2016-07-23T20:59:55.943Z,18.4
2016-07-23T21:03:09.757Z,18.4
2016-07-23T21:06:23.620Z,18.3
2016-07-23T21:09:37.690Z,18.2
2016-07-23T21:12:56.582Z,18.1
2016-07-23T21:16:00.758Z,18
2016-07-23T21:19:14.280Z,18
2016-07-23T21:22:26.522Z,18
2016-07-23T21:25:47.284Z,18
2016-07-23T21:28:56.590Z,18
2016-07-23T21:32:00.772Z,18
2016-07-23T21:35:14.237Z,18
2016-07-23T21:38:27.915Z,17.9
2016-07-23T21:41:41.550Z,17.9
2016-07-23T21:44:54.697Z,17.9
2016-07-23T21:48:08.124Z,17.9
2016-07-23T21:51:21.782Z,17.8
2016-07-23T21:54:34.795Z,17.8
2016-07-23T21:57:53.536Z,17.7
2016-07-23T22:00:57.665Z,17.7
2016-07-23T22:04:11.294Z,17.6
2016-07-23T22:07:24.243Z,17.5
2016-07-23T22:10:37.482Z,17.5
2016-07-23T22:13:55.718Z,17.5
2016-07-23T22:16:59.841Z,17.6
2016-07-23T22:20:12.991Z,17.6
2016-07-23T22:23:26.713Z,17.5
2016-07-23T22:26:40.190Z,17.5
2016-07-23T22:29:53.187Z,17.5
2016-07-23T22:33:04.925Z,17.5
2016-07-23T22:36:18.604Z,17.4
2016-07-23T22:39:32.411Z,17.4
2016-07-23T22:42:51.238Z,17.4
2016-07-23T22:45:55.456Z,17.4
2016-07-23T22:49:09.035Z,17.3
2016-07-23T22:52:23.200Z,17.3
2016-07-23T22:55:36.665Z,17.3
2016-07-23T22:58:55.230Z,17.2
2016-07-23T23:01:59.388Z,17.2
2016-07-23T23:05:13.127Z,17.1
2016-07-23T23:08:26.428Z,17.1
2016-07-23T23:11:39.895Z,17.1
2016-07-23T23:14:53.328Z,17
2016-07-23T23:18:06.923Z,17
2016-07-23T23:21:20.515Z,17
2016-07-23T23:24:33.333Z,17
2016-07-23T23:27:49.099Z,17
2016-07-23T23:30:53.357Z,17
2016-07-23T23:34:06.888Z,17
2016-07-23T23:37:19.796Z,17
2016-07-23T23:40:33.588Z,16.9
2016-07-23T23:43:52.499Z,16.9
2016-07-23T23:46:56.654Z,16.9
2016-07-23T23:50:10.630Z,16.9
2016-07-23T23:53:24.328Z,16.9
2016-07-23T23:56:38.048Z,16.9
2016-07-23T23:59:55.308Z,16.9
